^^
Station Historical Data
Daily Summary for June 12, 2017 Units:  Both    English   Metric
« Previous Day
Next Day »
Daily Weekly Monthly Yearly Custom
  High: Low: Average:
Temperature: 74.7 °F /  23.7 °C 45.0 °F /  7.2 °C 58 °F /  14.4 °C
Dew Point: 42.4 °F /  5.8 °C 34.5 °F /  1.4 °C 38.9 °F /  3.8 °C
Humidity: 74% 30% 51%
Wind Speed: 4.0mph /  6.4km/h - 0.3mph /  0.5km/h
Wind Gust: 7.0mph /  11.3km/h - -
Wind- - SW
Pressure: 30.35 in /  1027.7 hPa 30.23 in /  1023.6 hPa -
Precipitation: 0.00 in /  0 mm    
Historical Graphs
 
 
Tabular Data for June 12, 2017
Time Temperature Dew Point Pressure Wind Wind Speed Wind Gust Humidity Rainfall Rate (Hourly) solar Conditions
00:03 49.6 °F /  9.8 °C 34.5 °F /  1.4 °C 30.32in /  1026.6hPa Calm     56% 0.00in /  0mm 0.0 W/m2
00:09 49.6 °F /  9.8 °C 35.1 °F /  1.7 °C 30.32in /  1026.6hPa Calm     57% 0.00in /  0mm 0.0 W/m2
00:15 49.5 °F /  9.7 °C 34.9 °F /  1.6 °C 30.32in /  1026.6hPa Calm     57% 0.00in /  0mm 0.0 W/m2
00:21 49.3 °F /  9.6 °C 35.1 °F /  1.7 °C 30.31in /  1026.3hPa Calm   1.0mph /  1.6km/h 58% 0.00in /  0mm 0.0 W/m2
00:27 49.3 °F /  9.6 °C 35.1 °F /  1.7 °C 30.31in /  1026.3hPa Calm   2.0mph /  3.2km/h 58% 0.00in /  0mm 0.0 W/m2
00:33 49.3 °F /  9.6 °C 35.1 °F /  1.7 °C 30.31in /  1026.3hPa Calm   1.0mph /  1.6km/h 58% 0.00in /  0mm 0.0 W/m2
00:39 49.3 °F /  9.6 °C 35.1 °F /  1.7 °C 30.31in /  1026.3hPa Calm   1.0mph /  1.6km/h 58% 0.00in /  0mm 0.0 W/m2
00:45 49.5 °F /  9.7 °C 35.2 °F /  1.8 °C 30.31in /  1026.3hPa Calm   1.0mph /  1.6km/h 58% 0.00in /  0mm 0.0 W/m2
00:51 49.3 °F /  9.6 °C 34.7 °F /  1.5 °C 30.31in /  1026.3hPa Calm   1.0mph /  1.6km/h 57% 0.00in /  0mm 0.0 W/m2
00:57 49.3 °F /  9.6 °C 35.1 °F /  1.7 °C 30.31in /  1026.3hPa Calm   1.0mph /  1.6km/h 58% 0.00in /  0mm 0.0 W/m2
01:03 48.9 °F /  9.4 °C 34.9 °F /  1.6 °C 30.31in /  1026.3hPa Calm   1.0mph /  1.6km/h 58% 0.00in /  0mm 0.0 W/m2
01:09 48.7 °F /  9.3 °C 35.1 °F /  1.7 °C 30.31in /  1026.3hPa Calm     59% 0.00in /  0mm 0.0 W/m2
01:15 48.6 °F /  9.2 °C 34.9 °F /  1.6 °C 30.31in /  1026.3hPa Calm   2.0mph /  3.2km/h 59% 0.00in /  0mm 0.0 W/m2
01:21 48.2 °F /  9 °C 34.9 °F /  1.6 °C 30.31in /  1026.3hPa Calm   3.0mph /  4.8km/h 60% 0.00in /  0mm 0.0 W/m2
01:27 48.0 °F /  8.9 °C 35.2 °F /  1.8 °C 30.31in /  1026.3hPa Calm   1.0mph /  1.6km/h 61% 0.00in /  0mm 0.0 W/m2
01:33 47.8 °F /  8.8 °C 35.1 °F /  1.7 °C 30.31in /  1026.3hPa Calm   3.0mph /  4.8km/h 61% 0.00in /  0mm 0.0 W/m2
01:39 47.8 °F /  8.8 °C 35.1 °F /  1.7 °C 30.31in /  1026.3hPa Calm   1.0mph /  1.6km/h 61% 0.00in /  0mm 0.0 W/m2
01:51 48.0 °F /  8.9 °C 35.2 °F /  1.8 °C 30.31in /  1026.3hPa Calm   3.0mph /  4.8km/h 61% 0.00in /  0mm 0.0 W/m2
01:57 48.0 °F /  8.9 °C 35.2 °F /  1.8 °C 30.31in /  1026.3hPa Calm   1.0mph /  1.6km/h 61% 0.00in /  0mm 0.0 W/m2
02:03 48.0 °F /  8.9 °C 35.6 °F /  2 °C 30.30in /  1026hPa NE 0.9mph /  1.4km/h 5.0mph /  8km/h 62% 0.00in /  0mm 0.0 W/m2
02:09 48.4 °F /  9.1 °C 36.0 °F /  2.2 °C 30.30in /  1026hPa Calm   3.0mph /  4.8km/h 62% 0.00in /  0mm 0.0 W/m2
02:15 48.7 °F /  9.3 °C 36.0 °F /  2.2 °C 30.30in /  1026hPa NE 0.9mph /  1.4km/h 3.0mph /  4.8km/h 61% 0.00in /  0mm 0.0 W/m2
02:21 48.9 °F /  9.4 °C 36.1 °F /  2.3 °C 30.30in /  1026hPa Calm   5.0mph /  8km/h 61% 0.00in /  0mm 0.0 W/m2
02:27 48.7 °F /  9.3 °C 36.0 °F /  2.2 °C 30.30in /  1026hPa NE 4.0mph /  6.4km/h 5.0mph /  8km/h 61% 0.00in /  0mm 0.0 W/m2
02:33 48.7 °F /  9.3 °C 36.0 °F /  2.2 °C 30.30in /  1026hPa Calm   3.0mph /  4.8km/h 61% 0.00in /  0mm 0.0 W/m2
02:39 48.6 °F /  9.2 °C 36.1 °F /  2.3 °C 30.30in /  1026hPa NE 0.9mph /  1.4km/h 2.0mph /  3.2km/h 62% 0.00in /  0mm 0.0 W/m2
02:45 48.6 °F /  9.2 °C 36.1 °F /  2.3 °C 30.30in /  1026hPa Calm   3.0mph /  4.8km/h 62% 0.00in /  0mm 0.0 W/m2
02:51 48.4 °F /  9.1 °C 36.3 °F /  2.4 °C 30.30in /  1026hPa Calm   1.0mph /  1.6km/h 63% 0.00in /  0mm 0.0 W/m2
02:57 48.4 °F /  9.1 °C 36.3 °F /  2.4 °C 30.30in /  1026hPa Calm     63% 0.00in /  0mm 0.0 W/m2
03:04 48.4 °F /  9.1 °C 36.3 °F /  2.4 °C 30.30in /  1026hPa Calm     63% 0.00in /  0mm 0.0 W/m2
03:09 48.0 °F /  8.9 °C 36.0 °F /  2.2 °C 30.30in /  1026hPa Calm     63% 0.00in /  0mm 0.0 W/m2
03:15 47.8 °F /  8.8 °C 36.3 °F /  2.4 °C 30.30in /  1026hPa Calm     64% 0.00in /  0mm 0.0 W/m2
03:21 47.5 °F /  8.6 °C 36.3 °F /  2.4 °C 30.30in /  1026hPa Calm     65% 0.00in /  0mm 0.0 W/m2
03:28 46.9 °F /  8.3 °C 35.8 °F /  2.1 °C 30.30in /  1026hPa Calm     65% 0.00in /  0mm 0.0 W/m2
03:34 46.8 °F /  8.2 °C 36.3 °F /  2.4 °C 30.30in /  1026hPa Calm   1.0mph /  1.6km/h 67% 0.00in /  0mm 0.0 W/m2
03:40 46.8 °F /  8.2 °C 36.3 °F /  2.4 °C 30.30in /  1026hPa Calm   1.0mph /  1.6km/h 67% 0.00in /  0mm 0.0 W/m2
03:46 46.6 °F /  8.1 °C 36.5 °F /  2.5 °C 30.30in /  1026hPa Calm     68% 0.00in /  0mm 0.0 W/m2
03:52 46.8 °F /  8.2 °C 36.7 °F /  2.6 °C 30.30in /  1026hPa ESE 2.0mph /  3.2km/h 4.0mph /  6.4km/h 68% 0.00in /  0mm 0.0 W/m2
03:58 46.8 °F /  8.2 °C 36.3 °F /  2.4 °C 30.29in /  1025.6hPa Calm   3.0mph /  4.8km/h 67% 0.00in /  0mm 0.0 W/m2
04:04 46.8 °F /  8.2 °C 36.7 °F /  2.6 °C 30.30in /  1026hPa Calm     68% 0.00in /  0mm 0.0 W/m2
04:11 46.8 °F /  8.2 °C 36.7 °F /  2.6 °C 30.29in /  1025.6hPa Calm     68% 0.00in /  0mm 0.0 W/m2
04:17 46.8 °F /  8.2 °C 36.7 °F /  2.6 °C 30.29in /  1025.6hPa Calm     68% 0.00in /  0mm 0.0 W/m2
04:23 46.8 °F /  8.2 °C 36.7 °F /  2.6 °C 30.30in /  1026hPa Calm     68% 0.00in /  0mm 0.0 W/m2
04:29 46.9 °F /  8.3 °C 36.5 °F /  2.5 °C 30.30in /  1026hPa Calm     67% 0.00in /  0mm 0.0 W/m2
04:35 46.9 °F /  8.3 °C 36.9 °F /  2.7 °C 30.30in /  1026hPa Calm   3.0mph /  4.8km/h 68% 0.00in /  0mm 0.0 W/m2
04:41 46.9 °F /  8.3 °C 36.5 °F /  2.5 °C 30.30in /  1026hPa Calm   2.0mph /  3.2km/h 67% 0.00in /  0mm 0.0 W/m2
04:47 46.9 °F /  8.3 °C 36.9 °F /  2.7 °C 30.30in /  1026hPa Calm   1.0mph /  1.6km/h 68% 0.00in /  0mm 0.0 W/m2
04:53 46.9 °F /  8.3 °C 36.5 °F /  2.5 °C 30.30in /  1026hPa Calm   2.0mph /  3.2km/h 67% 0.00in /  0mm 0.0 W/m2
04:59 46.9 °F /  8.3 °C 36.9 °F /  2.7 °C 30.30in /  1026hPa Calm     68% 0.00in /  0mm 0.0 W/m2
05:05 46.6 °F /  8.1 °C 36.1 °F /  2.3 °C 30.30in /  1026hPa Calm   1.0mph /  1.6km/h 67% 0.00in /  0mm 0.0 W/m2
05:11 46.2 °F /  7.9 °C 36.7 °F /  2.6 °C 30.30in /  1026hPa Calm   4.0mph /  6.4km/h 69% 0.00in /  0mm 0.0 W/m2
05:18 46.2 °F /  7.9 °C 36.7 °F /  2.6 °C 30.30in /  1026hPa NNE 0.9mph /  1.4km/h 6.0mph /  9.7km/h 69% 0.00in /  0mm 0.0 W/m2
05:24 46.4 °F /  8 °C 36.9 °F /  2.7 °C 30.30in /  1026hPa Calm   4.0mph /  6.4km/h 69% 0.00in /  0mm 0.0 W/m2
05:30 46.4 °F /  8 °C 36.9 °F /  2.7 °C 30.30in /  1026hPa East 2.0mph /  3.2km/h 4.0mph /  6.4km/h 69% 0.00in /  0mm 0.0 W/m2
05:36 46.4 °F /  8 °C 36.9 °F /  2.7 °C 30.31in /  1026.3hPa Calm   2.0mph /  3.2km/h 69% 0.00in /  0mm 0.0 W/m2
05:42 46.2 °F /  7.9 °C 36.7 °F /  2.6 °C 30.31in /  1026.3hPa Calm   2.0mph /  3.2km/h 69% 0.00in /  0mm 0.0 W/m2
05:48 46.2 °F /  7.9 °C 36.7 °F /  2.6 °C 30.31in /  1026.3hPa Calm     69% 0.00in /  0mm 0.0 W/m2
05:54 46.2 °F /  7.9 °C 37.0 °F /  2.8 °C 30.31in /  1026.3hPa Calm     70% 0.00in /  0mm 0.0 W/m2
06:00 46.0 °F /  7.8 °C 36.9 °F /  2.7 °C 30.31in /  1026.3hPa Calm     70% 0.00in /  0mm 0.0 W/m2
06:06 45.9 °F /  7.7 °C 37.0 °F /  2.8 °C 30.32in /  1026.6hPa Calm     71% 0.00in /  0mm 0.0 W/m2
06:12 45.7 °F /  7.6 °C 37.2 °F /  2.9 °C 30.32in /  1026.6hPa Calm     72% 0.00in /  0mm 0.0 W/m2
06:18 45.5 °F /  7.5 °C 37.0 °F /  2.8 °C 30.32in /  1026.6hPa Calm     72% 0.00in /  0mm 0.0 W/m2
06:24 45.3 °F /  7.4 °C 37.2 °F /  2.9 °C 30.32in /  1026.6hPa Calm     73% 0.00in /  0mm 0.0 W/m2
06:30 45.1 °F /  7.3 °C 37.4 °F /  3 °C 30.32in /  1026.6hPa Calm     74% 0.00in /  0mm 0.0 W/m2
06:36 45.0 °F /  7.2 °C 37.2 °F /  2.9 °C 30.32in /  1026.6hPa Calm   1.0mph /  1.6km/h 74% 0.00in /  0mm 7.0 W/m2
06:42 45.0 °F /  7.2 °C 37.2 °F /  2.9 °C 30.32in /  1026.6hPa Calm   1.0mph /  1.6km/h 74% 0.00in /  0mm 9.0 W/m2
06:49 45.1 °F /  7.3 °C 37.4 °F /  3 °C 30.33in /  1027hPa Calm     74% 0.00in /  0mm 12.0 W/m2
06:55 45.3 °F /  7.4 °C 37.2 °F /  2.9 °C 30.33in /  1027hPa Calm   2.0mph /  3.2km/h 73% 0.00in /  0mm 14.0 W/m2
07:01 45.3 °F /  7.4 °C 37.2 °F /  2.9 °C 30.33in /  1027hPa Calm   1.0mph /  1.6km/h 73% 0.00in /  0mm 16.0 W/m2
07:07 45.3 °F /  7.4 °C 37.2 °F /  2.9 °C 30.33in /  1027hPa Calm   2.0mph /  3.2km/h 73% 0.00in /  0mm 18.0 W/m2
07:13 45.7 °F /  7.6 °C 37.6 °F /  3.1 °C 30.33in /  1027hPa Calm   2.0mph /  3.2km/h 73% 0.00in /  0mm 19.0 W/m2
07:19 45.9 °F /  7.7 °C 37.8 °F /  3.2 °C 30.33in /  1027hPa Calm   1.0mph /  1.6km/h 73% 0.00in /  0mm 21.0 W/m2
07:26 46.2 °F /  7.9 °C 38.1 °F /  3.4 °C 30.34in /  1027.3hPa Calm   1.0mph /  1.6km/h 73% 0.00in /  0mm 23.0 W/m2
07:32 46.6 °F /  8.1 °C 38.1 °F /  3.4 °C 30.34in /  1027.3hPa Calm   2.0mph /  3.2km/h 72% 0.00in /  0mm 25.0 W/m2
07:38 46.9 °F /  8.3 °C 38.3 °F /  3.5 °C 30.34in /  1027.3hPa Calm   2.0mph /  3.2km/h 72% 0.00in /  0mm 26.0 W/m2
07:44 47.5 °F /  8.6 °C 38.8 °F /  3.8 °C 30.34in /  1027.3hPa Calm     72% 0.00in /  0mm 28.0 W/m2
07:50 48.2 °F /  9 °C 39.2 °F /  4 °C 30.35in /  1027.7hPa Calm   1.0mph /  1.6km/h 71% 0.00in /  0mm 46.0 W/m2
07:56 49.5 °F /  9.7 °C 39.7 °F /  4.3 °C 30.35in /  1027.7hPa Calm   1.0mph /  1.6km/h 69% 0.00in /  0mm 248.0 W/m2
08:02 51.1 °F /  10.6 °C 40.1 °F /  4.5 °C 30.35in /  1027.7hPa Calm     66% 0.00in /  0mm 278.0 W/m2
08:09 52.5 °F /  11.4 °C 41.2 °F /  5.1 °C 30.35in /  1027.7hPa Calm   1.0mph /  1.6km/h 65% 0.00in /  0mm 299.0 W/m2
08:15 54.7 °F /  12.6 °C 41.0 °F /  5 °C 30.35in /  1027.7hPa Calm   1.0mph /  1.6km/h 60% 0.00in /  0mm 318.0 W/m2
08:21 57.2 °F /  14 °C 41.2 °F /  5.1 °C 30.35in /  1027.7hPa Calm   1.0mph /  1.6km/h 55% 0.00in /  0mm 338.0 W/m2
08:27 59.2 °F /  15.1 °C 41.5 °F /  5.3 °C 30.35in /  1027.7hPa NNE 2.0mph /  3.2km/h 2.0mph /  3.2km/h 52% 0.00in /  0mm 359.0 W/m2
08:33 60.6 °F /  15.9 °C 41.4 °F /  5.2 °C 30.35in /  1027.7hPa Calm   1.0mph /  1.6km/h 49% 0.00in /  0mm 378.0 W/m2
08:39 61.9 °F /  16.6 °C 41.4 °F /  5.2 °C 30.35in /  1027.7hPa Calm     47% 0.00in /  0mm 396.0 W/m2
08:46 62.8 °F /  17.1 °C 41.7 °F /  5.4 °C 30.35in /  1027.7hPa Calm   1.0mph /  1.6km/h 46% 0.00in /  0mm 413.0 W/m2
08:52 62.8 °F /  17.1 °C 40.5 °F /  4.7 °C 30.35in /  1027.7hPa Calm     44% 0.00in /  0mm 432.0 W/m2
08:58 62.8 °F /  17.1 °C 41.2 °F /  5.1 °C 30.35in /  1027.7hPa Calm   1.0mph /  1.6km/h 45% 0.00in /  0mm 448.0 W/m2
09:04 63.1 °F /  17.3 °C 40.8 °F /  4.9 °C 30.35in /  1027.7hPa Calm     44% 0.00in /  0mm 464.0 W/m2
09:10 64.2 °F /  17.9 °C 41.2 °F /  5.1 °C 30.35in /  1027.7hPa Calm     43% 0.00in /  0mm 480.0 W/m2
09:16 64.6 °F /  18.1 °C 41.5 °F /  5.3 °C 30.35in /  1027.7hPa NW 0.9mph /  1.4km/h 1.0mph /  1.6km/h 43% 0.00in /  0mm 494.0 W/m2
09:22 64.8 °F /  18.2 °C 41.2 °F /  5.1 °C 30.35in /  1027.7hPa Calm   2.0mph /  3.2km/h 42% 0.00in /  0mm 510.0 W/m2
09:28 65.1 °F /  18.4 °C 41.5 °F /  5.3 °C 30.35in /  1027.7hPa Calm   1.0mph /  1.6km/h 42% 0.00in /  0mm 522.0 W/m2
09:34 65.3 °F /  18.5 °C 41.5 °F /  5.3 °C 30.35in /  1027.7hPa NW 0.9mph /  1.4km/h 1.0mph /  1.6km/h 42% 0.00in /  0mm 538.0 W/m2
09:40 65.8 °F /  18.8 °C 40.8 °F /  4.9 °C 30.35in /  1027.7hPa Calm   2.0mph /  3.2km/h 40% 0.00in /  0mm 550.0 W/m2
09:47 66.7 °F /  19.3 °C 41.7 °F /  5.4 °C 30.34in /  1027.3hPa Calm     40% 0.00in /  0mm 559.0 W/m2
09:53 67.3 °F /  19.6 °C 41.5 °F /  5.3 °C 30.34in /  1027.3hPa Calm     39% 0.00in /  0mm 571.0 W/m2
09:59 68.0 °F /  20 °C 41.4 °F /  5.2 °C 30.34in /  1027.3hPa WNW 0.9mph /  1.4km/h 3.0mph /  4.8km/h 38% 0.00in /  0mm 585.0 W/m2
10:05 68.2 °F /  20.1 °C 41.5 °F /  5.3 °C 30.34in /  1027.3hPa NNW 0.9mph /  1.4km/h 1.0mph /  1.6km/h 38% 0.00in /  0mm 598.0 W/m2
10:11 68.4 °F /  20.2 °C 41.7 °F /  5.4 °C 30.34in /  1027.3hPa Calm     38% 0.00in /  0mm 606.0 W/m2
10:17 68.7 °F /  20.4 °C 42.1 °F /  5.6 °C 30.34in /  1027.3hPa West 2.9mph /  4.7km/h 3.0mph /  4.8km/h 38% 0.00in /  0mm 615.0 W/m2
10:23 68.4 °F /  20.2 °C 41.0 °F /  5 °C 30.34in /  1027.3hPa WSW 0.9mph /  1.4km/h 3.0mph /  4.8km/h 37% 0.00in /  0mm 626.0 W/m2
10:29 67.6 °F /  19.8 °C 41.7 °F /  5.4 °C 30.33in /  1027hPa Calm   2.0mph /  3.2km/h 39% 0.00in /  0mm 631.0 W/m2
10:36 67.8 °F /  19.9 °C 41.4 °F /  5.2 °C 30.33in /  1027hPa NNW 2.0mph /  3.2km/h 2.0mph /  3.2km/h 38% 0.00in /  0mm 642.0 W/m2
10:42 68.5 °F /  20.3 °C 41.2 °F /  5.1 °C 30.33in /  1027hPa WSW 0.9mph /  1.4km/h 3.0mph /  4.8km/h 37% 0.00in /  0mm 650.0 W/m2
10:48 68.7 °F /  20.4 °C 40.6 °F /  4.8 °C 30.33in /  1027hPa Calm   1.0mph /  1.6km/h 36% 0.00in /  0mm 654.0 W/m2
10:54 68.7 °F /  20.4 °C 41.4 °F /  5.2 °C 30.33in /  1027hPa Calm   2.0mph /  3.2km/h 37% 0.00in /  0mm 659.0 W/m2
11:00 68.7 °F /  20.4 °C 40.6 °F /  4.8 °C 30.33in /  1027hPa Calm   2.0mph /  3.2km/h 36% 0.00in /  0mm 663.0 W/m2
11:06 69.1 °F /  20.6 °C 41.0 °F /  5 °C 30.33in /  1027hPa Calm   1.0mph /  1.6km/h 36% 0.00in /  0mm 666.0 W/m2
11:12 69.1 °F /  20.6 °C 41.0 °F /  5 °C 30.32in /  1026.6hPa Calm   2.0mph /  3.2km/h 36% 0.00in /  0mm 670.0 W/m2
11:18 69.6 °F /  20.9 °C 40.8 °F /  4.9 °C 30.32in /  1026.6hPa West 2.9mph /  4.7km/h 5.0mph /  8km/h 35% 0.00in /  0mm 675.0 W/m2
11:24 69.6 °F /  20.9 °C 40.8 °F /  4.9 °C 30.32in /  1026.6hPa Calm   2.0mph /  3.2km/h 35% 0.00in /  0mm 673.0 W/m2
11:31 69.8 °F /  21 °C 41.0 °F /  5 °C 30.32in /  1026.6hPa Calm   2.0mph /  3.2km/h 35% 0.00in /  0mm 677.0 W/m2
11:37 70.3 °F /  21.3 °C 40.6 °F /  4.8 °C 30.31in /  1026.3hPa Calm   4.0mph /  6.4km/h 34% 0.00in /  0mm 679.0 W/m2
11:43 71.1 °F /  21.7 °C 40.5 °F /  4.7 °C 30.31in /  1026.3hPa WSW 0.9mph /  1.4km/h 3.0mph /  4.8km/h 33% 0.00in /  0mm 677.0 W/m2
11:49 71.4 °F /  21.9 °C 40.8 °F /  4.9 °C 30.31in /  1026.3hPa WSW 0.9mph /  1.4km/h 4.0mph /  6.4km/h 33% 0.00in /  0mm 682.0 W/m2
11:55 71.1 °F /  21.7 °C 40.5 °F /  4.7 °C 30.30in /  1026hPa WSW 0.9mph /  1.4km/h 5.0mph /  8km/h 33% 0.00in /  0mm 677.0 W/m2
12:01 70.7 °F /  21.5 °C 40.1 °F /  4.5 °C 30.30in /  1026hPa Calm   2.0mph /  3.2km/h 33% 0.00in /  0mm 677.0 W/m2
12:07 70.9 °F /  21.6 °C 40.3 °F /  4.6 °C 30.30in /  1026hPa Calm   2.0mph /  3.2km/h 33% 0.00in /  0mm 675.0 W/m2
12:13 71.2 °F /  21.8 °C 40.6 °F /  4.8 °C 30.29in /  1025.6hPa NW 0.9mph /  1.4km/h 5.0mph /  8km/h 33% 0.00in /  0mm 675.0 W/m2
12:20 72.0 °F /  22.2 °C 40.5 °F /  4.7 °C 30.29in /  1025.6hPa Calm   3.0mph /  4.8km/h 32% 0.00in /  0mm 670.0 W/m2
12:26 72.1 °F /  22.3 °C 40.6 °F /  4.8 °C 30.29in /  1025.6hPa NNW 2.0mph /  3.2km/h 5.0mph /  8km/h 32% 0.00in /  0mm 661.0 W/m2
12:32 72.7 °F /  22.6 °C 41.2 °F /  5.1 °C 30.28in /  1025.3hPa North 2.9mph /  4.7km/h 3.0mph /  4.8km/h 32% 0.00in /  0mm 654.0 W/m2
12:38 72.9 °F /  22.7 °C 41.4 °F /  5.2 °C 30.28in /  1025.3hPa Calm   3.0mph /  4.8km/h 32% 0.00in /  0mm 649.0 W/m2
12:44 72.9 °F /  22.7 °C 41.4 °F /  5.2 °C 30.28in /  1025.3hPa NNE 2.0mph /  3.2km/h 2.0mph /  3.2km/h 32% 0.00in /  0mm 643.0 W/m2
12:50 73.2 °F /  22.9 °C 41.5 °F /  5.3 °C 30.27in /  1024.9hPa WSW 0.9mph /  1.4km/h 1.0mph /  1.6km/h 32% 0.00in /  0mm 633.0 W/m2
12:56 72.9 °F /  22.7 °C 40.5 °F /  4.7 °C 30.27in /  1024.9hPa Calm   2.0mph /  3.2km/h 31% 0.00in /  0mm 631.0 W/m2
13:02 72.7 °F /  22.6 °C 41.2 °F /  5.1 °C 30.27in /  1024.9hPa West 0.9mph /  1.4km/h 5.0mph /  8km/h 32% 0.00in /  0mm 621.0 W/m2
13:09 72.9 °F /  22.7 °C 41.4 °F /  5.2 °C 30.26in /  1024.6hPa NNW 0.9mph /  1.4km/h 4.0mph /  6.4km/h 32% 0.00in /  0mm 612.0 W/m2
13:15 73.2 °F /  22.9 °C 41.5 °F /  5.3 °C 30.26in /  1024.6hPa Calm   4.0mph /  6.4km/h 32% 0.00in /  0mm 603.0 W/m2
13:21 73.4 °F /  23 °C 41.7 °F /  5.4 °C 30.26in /  1024.6hPa West 0.9mph /  1.4km/h 3.0mph /  4.8km/h 32% 0.00in /  0mm 592.0 W/m2
13:27 73.4 °F /  23 °C 41.7 °F /  5.4 °C 30.26in /  1024.6hPa WNW 2.9mph /  4.7km/h 5.0mph /  8km/h 32% 0.00in /  0mm 582.0 W/m2
13:33 73.4 °F /  23 °C 41.7 °F /  5.4 °C 30.25in /  1024.3hPa Calm   3.0mph /  4.8km/h 32% 0.00in /  0mm 578.0 W/m2
13:39 73.6 °F /  23.1 °C 41.9 °F /  5.5 °C 30.25in /  1024.3hPa Calm   2.0mph /  3.2km/h 32% 0.00in /  0mm 557.0 W/m2
13:45 73.6 °F /  23.1 °C 41.9 °F /  5.5 °C 30.25in /  1024.3hPa NNW 4.0mph /  6.4km/h 4.0mph /  6.4km/h 32% 0.00in /  0mm 540.0 W/m2
13:52 73.8 °F /  23.2 °C 42.1 °F /  5.6 °C 30.25in /  1024.3hPa WSW 4.0mph /  6.4km/h 4.0mph /  6.4km/h 32% 0.00in /  0mm 540.0 W/m2
13:58 73.9 °F /  23.3 °C 41.4 °F /  5.2 °C 30.25in /  1024.3hPa Calm   3.0mph /  4.8km/h 31% 0.00in /  0mm 519.0 W/m2
14:04 73.9 °F /  23.3 °C 41.4 °F /  5.2 °C 30.25in /  1024.3hPa Calm   7.0mph /  11.3km/h 31% 0.00in /  0mm 510.0 W/m2
14:10 73.9 °F /  23.3 °C 41.4 °F /  5.2 °C 30.24in /  1023.9hPa Calm   3.0mph /  4.8km/h 31% 0.00in /  0mm 489.0 W/m2
14:16 73.9 °F /  23.3 °C 41.4 °F /  5.2 °C 30.24in /  1023.9hPa NNW 2.0mph /  3.2km/h 4.0mph /  6.4km/h 31% 0.00in /  0mm 483.0 W/m2
14:22 73.9 °F /  23.3 °C 42.3 °F /  5.7 °C 30.24in /  1023.9hPa West 0.9mph /  1.4km/h 7.0mph /  11.3km/h 32% 0.00in /  0mm 469.0 W/m2
14:28 74.3 °F /  23.5 °C 41.7 °F /  5.4 °C 30.24in /  1023.9hPa Calm   1.0mph /  1.6km/h 31% 0.00in /  0mm 452.0 W/m2
14:34 74.7 °F /  23.7 °C 42.1 °F /  5.6 °C 30.24in /  1023.9hPa Calm   1.0mph /  1.6km/h 31% 0.00in /  0mm 436.0 W/m2
14:40 74.7 °F /  23.7 °C 42.1 °F /  5.6 °C 30.24in /  1023.9hPa WNW 0.9mph /  1.4km/h 5.0mph /  8km/h 31% 0.00in /  0mm 413.0 W/m2
14:47 74.5 °F /  23.6 °C 41.0 °F /  5 °C 30.24in /  1023.9hPa Calm   5.0mph /  8km/h 30% 0.00in /  0mm 397.0 W/m2
14:53 74.3 °F /  23.5 °C 41.7 °F /  5.4 °C 30.24in /  1023.9hPa Calm   1.0mph /  1.6km/h 31% 0.00in /  0mm 374.0 W/m2
14:59 74.1 °F /  23.4 °C 42.4 °F /  5.8 °C 30.24in /  1023.9hPa Calm   3.0mph /  4.8km/h 32% 0.00in /  0mm 364.0 W/m2
15:05 73.9 °F /  23.3 °C 41.4 °F /  5.2 °C 30.24in /  1023.9hPa Calm     31% 0.00in /  0mm 345.0 W/m2
15:11 73.8 °F /  23.2 °C 41.2 °F /  5.1 °C 30.23in /  1023.6hPa NW 4.0mph /  6.4km/h 5.0mph /  8km/h 31% 0.00in /  0mm 332.0 W/m2
15:17 73.6 °F /  23.1 °C 41.0 °F /  5 °C 30.23in /  1023.6hPa NW 2.0mph /  3.2km/h 6.0mph /  9.7km/h 31% 0.00in /  0mm 309.0 W/m2
15:23 73.2 °F /  22.9 °C 41.5 °F /  5.3 °C 30.23in /  1023.6hPa North 2.0mph /  3.2km/h 4.0mph /  6.4km/h 32% 0.00in /  0mm 56.0 W/m2
15:29 73.0 °F /  22.8 °C 41.4 °F /  5.2 °C 30.23in /  1023.6hPa WNW 0.9mph /  1.4km/h 1.0mph /  1.6km/h 32% 0.00in /  0mm 51.0 W/m2
15:36 72.9 °F /  22.7 °C 41.4 °F /  5.2 °C 30.23in /  1023.6hPa WSW 2.0mph /  3.2km/h 3.0mph /  4.8km/h 32% 0.00in /  0mm 47.0 W/m2
15:42 72.5 °F /  22.5 °C 41.0 °F /  5 °C 30.23in /  1023.6hPa NNW 2.0mph /  3.2km/h 3.0mph /  4.8km/h 32% 0.00in /  0mm 46.0 W/m2
15:48 72.1 °F /  22.3 °C 40.6 °F /  4.8 °C 30.23in /  1023.6hPa WSW 2.0mph /  3.2km/h 3.0mph /  4.8km/h 32% 0.00in /  0mm 42.0 W/m2
15:54 72.0 °F /  22.2 °C 41.4 °F /  5.2 °C 30.24in /  1023.9hPa Calm   1.0mph /  1.6km/h 33% 0.00in /  0mm 40.0 W/m2
16:00 71.8 °F /  22.1 °C 41.2 °F /  5.1 °C 30.23in /  1023.6hPa Calm   1.0mph /  1.6km/h 33% 0.00in /  0mm 35.0 W/m2
16:06 71.4 °F /  21.9 °C 40.8 °F /  4.9 °C 30.24in /  1023.9hPa NNW 0.9mph /  1.4km/h 4.0mph /  6.4km/h 33% 0.00in /  0mm 30.0 W/m2
16:12 71.2 °F /  21.8 °C 40.6 °F /  4.8 °C 30.24in /  1023.9hPa NNW 0.9mph /  1.4km/h 4.0mph /  6.4km/h 33% 0.00in /  0mm 28.0 W/m2
16:18 71.1 °F /  21.7 °C 41.4 °F /  5.2 °C 30.24in /  1023.9hPa Calm   1.0mph /  1.6km/h 34% 0.00in /  0mm 26.0 W/m2
16:25 70.5 °F /  21.4 °C 40.8 °F /  4.9 °C 30.24in /  1023.9hPa Calm   1.0mph /  1.6km/h 34% 0.00in /  0mm 25.0 W/m2
16:31 70.2 °F /  21.2 °C 40.5 °F /  4.7 °C 30.24in /  1023.9hPa NW 2.9mph /  4.7km/h 4.0mph /  6.4km/h 34% 0.00in /  0mm 23.0 W/m2
16:37 70.0 °F /  21.1 °C 41.7 °F /  5.4 °C 30.24in /  1023.9hPa Calm     36% 0.00in /  0mm 21.0 W/m2
16:43 69.6 °F /  20.9 °C 41.5 °F /  5.3 °C 30.24in /  1023.9hPa Calm     36% 0.00in /  0mm 18.0 W/m2
16:49 69.1 °F /  20.6 °C 41.7 °F /  5.4 °C 30.25in /  1024.3hPa Calm   2.0mph /  3.2km/h 37% 0.00in /  0mm 18.0 W/m2
16:55 68.5 °F /  20.3 °C 41.2 °F /  5.1 °C 30.25in /  1024.3hPa Calm   1.0mph /  1.6km/h 37% 0.00in /  0mm 14.0 W/m2
17:01 68.2 °F /  20.1 °C 41.5 °F /  5.3 °C 30.25in /  1024.3hPa Calm     38% 0.00in /  0mm 12.0 W/m2
17:08 67.5 °F /  19.7 °C 41.0 °F /  5 °C 30.25in /  1024.3hPa Calm     38% 0.00in /  0mm 7.0 W/m2
17:14 66.9 °F /  19.4 °C 41.2 °F /  5.1 °C 30.25in /  1024.3hPa Calm     39% 0.00in /  0mm 0.0 W/m2
17:20 66.4 °F /  19.1 °C 41.4 °F /  5.2 °C 30.25in /  1024.3hPa Calm     40% 0.00in /  0mm 0.0 W/m2
17:26 65.8 °F /  18.8 °C 40.8 °F /  4.9 °C 30.26in /  1024.6hPa Calm     40% 0.00in /  0mm 0.0 W/m2
17:38 64.6 °F /  18.1 °C 40.3 °F /  4.6 °C 30.26in /  1024.6hPa Calm     41% 0.00in /  0mm 0.0 W/m2
17:50 63.1 °F /  17.3 °C 39.7 °F /  4.3 °C 30.26in /  1024.6hPa Calm     42% 0.00in /  0mm 0.0 W/m2
17:57 62.4 °F /  16.9 °C 39.6 °F /  4.2 °C 30.27in /  1024.9hPa Calm     43% 0.00in /  0mm 0.0 W/m2
18:03 61.9 °F /  16.6 °C 39.7 °F /  4.3 °C 30.27in /  1024.9hPa Calm     44% 0.00in /  0mm 0.0 W/m2
18:10 61.2 °F /  16.2 °C 39.7 °F /  4.3 °C 30.27in /  1024.9hPa Calm     45% 0.00in /  0mm 0.0 W/m2
18:15 60.6 °F /  15.9 °C 39.7 °F /  4.3 °C 30.27in /  1024.9hPa Calm     46% 0.00in /  0mm 0.0 W/m2
18:21 60.1 °F /  15.6 °C 39.2 °F /  4 °C 30.27in /  1024.9hPa Calm     46% 0.00in /  0mm 0.0 W/m2
18:27 59.5 °F /  15.3 °C 39.4 °F /  4.1 °C 30.27in /  1024.9hPa Calm     47% 0.00in /  0mm 0.0 W/m2
18:33 59.2 °F /  15.1 °C 39.6 °F /  4.2 °C 30.28in /  1025.3hPa Calm     48% 0.00in /  0mm 0.0 W/m2
18:39 58.6 °F /  14.8 °C 39.6 °F /  4.2 °C 30.28in /  1025.3hPa Calm     49% 0.00in /  0mm 0.0 W/m2
18:46 58.3 °F /  14.6 °C 39.7 °F /  4.3 °C 30.28in /  1025.3hPa Calm     50% 0.00in /  0mm 0.0 W/m2
18:52 57.7 °F /  14.3 °C 39.2 °F /  4 °C 30.28in /  1025.3hPa Calm     50% 0.00in /  0mm 0.0 W/m2
18:58 57.2 °F /  14 °C 38.7 °F /  3.7 °C 30.29in /  1025.6hPa Calm     50% 0.00in /  0mm 0.0 W/m2
19:04 56.7 °F /  13.7 °C 38.7 °F /  3.7 °C 30.29in /  1025.6hPa Calm     51% 0.00in /  0mm 0.0 W/m2
19:10 56.5 °F /  13.6 °C 38.7 °F /  3.7 °C 30.29in /  1025.6hPa Calm     51% 0.00in /  0mm 0.0 W/m2
19:16 56.3 °F /  13.5 °C 38.8 °F /  3.8 °C 30.29in /  1025.6hPa Calm     52% 0.00in /  0mm 0.0 W/m2
19:22 56.1 °F /  13.4 °C 39.2 °F /  4 °C 30.29in /  1025.6hPa Calm     53% 0.00in /  0mm 0.0 W/m2
19:29 55.8 °F /  13.2 °C 38.8 °F /  3.8 °C 30.29in /  1025.6hPa Calm     53% 0.00in /  0mm 0.0 W/m2
19:35 55.6 °F /  13.1 °C 39.2 °F /  4 °C 30.29in /  1025.6hPa Calm     54% 0.00in /  0mm 0.0 W/m2
19:41 55.2 °F /  12.9 °C 38.8 °F /  3.8 °C 30.30in /  1026hPa Calm     54% 0.00in /  0mm 0.0 W/m2
19:47 55.0 °F /  12.8 °C 39.2 °F /  4 °C 30.30in /  1026hPa Calm   1.0mph /  1.6km/h 55% 0.00in /  0mm 0.0 W/m2
19:53 55.0 °F /  12.8 °C 38.7 °F /  3.7 °C 30.31in /  1026.3hPa SE 2.0mph /  3.2km/h 3.0mph /  4.8km/h 54% 0.00in /  0mm 0.0 W/m2
19:55 55.0 °F /  12.8 °C 38.7 °F /  3.7 °C 30.31in /  1026.3hPa Calm   2.0mph /  3.2km/h 54% 0.00in /  0mm 0.0 W/m2
20:01 55.2 °F /  12.9 °C 38.3 °F /  3.5 °C 30.30in /  1026hPa Calm     53% 0.00in /  0mm 0.0 W/m2
20:07 54.9 °F /  12.7 °C 38.1 °F /  3.4 °C 30.31in /  1026.3hPa Calm     53% 0.00in /  0mm 0.0 W/m2
20:14 54.7 °F /  12.6 °C 38.8 °F /  3.8 °C 30.31in /  1026.3hPa Calm     55% 0.00in /  0mm 0.0 W/m2
20:20 54.1 °F /  12.3 °C 38.8 °F /  3.8 °C 30.31in /  1026.3hPa Calm     56% 0.00in /  0mm 0.0 W/m2
20:26 54.0 °F /  12.2 °C 38.7 °F /  3.7 °C 30.31in /  1026.3hPa Calm     56% 0.00in /  0mm 0.0 W/m2
20:32 53.8 °F /  12.1 °C 38.8 °F /  3.8 °C 30.31in /  1026.3hPa Calm     57% 0.00in /  0mm 0.0 W/m2
20:38 53.4 °F /  11.9 °C 38.5 °F /  3.6 °C 30.31in /  1026.3hPa Calm     57% 0.00in /  0mm 0.0 W/m2
20:44 53.2 °F /  11.8 °C 38.5 °F /  3.6 °C 30.31in /  1026.3hPa Calm     57% 0.00in /  0mm 0.0 W/m2
20:50 53.2 °F /  11.8 °C 38.5 °F /  3.6 °C 30.31in /  1026.3hPa Calm     57% 0.00in /  0mm 0.0 W/m2
20:56 53.1 °F /  11.7 °C 38.3 °F /  3.5 °C 30.31in /  1026.3hPa Calm     57% 0.00in /  0mm 0.0 W/m2
21:03 53.1 °F /  11.7 °C 38.3 °F /  3.5 °C 30.31in /  1026.3hPa Calm   2.0mph /  3.2km/h 57% 0.00in /  0mm 0.0 W/m2
21:09 53.2 °F /  11.8 °C 38.5 °F /  3.6 °C 30.31in /  1026.3hPa ESE 0.9mph /  1.4km/h 1.0mph /  1.6km/h 57% 0.00in /  0mm 0.0 W/m2
21:15 53.2 °F /  11.8 °C 38.5 °F /  3.6 °C 30.31in /  1026.3hPa East 0.9mph /  1.4km/h 1.0mph /  1.6km/h 57% 0.00in /  0mm 0.0 W/m2
21:21 53.2 °F /  11.8 °C 38.5 °F /  3.6 °C 30.31in /  1026.3hPa Calm     57% 0.00in /  0mm 0.0 W/m2
21:27 53.4 °F /  11.9 °C 38.5 °F /  3.6 °C 30.31in /  1026.3hPa Calm     57% 0.00in /  0mm 0.0 W/m2
21:33 53.2 °F /  11.8 °C 38.5 °F /  3.6 °C 30.31in /  1026.3hPa Calm     57% 0.00in /  0mm 0.0 W/m2
21:40 53.1 °F /  11.7 °C 38.3 °F /  3.5 °C 30.31in /  1026.3hPa Calm     57% 0.00in /  0mm 0.0 W/m2
21:46 52.9 °F /  11.6 °C 38.5 °F /  3.6 °C 30.31in /  1026.3hPa Calm   2.0mph /  3.2km/h 58% 0.00in /  0mm 0.0 W/m2
21:52 52.5 °F /  11.4 °C 38.1 °F /  3.4 °C 30.31in /  1026.3hPa Calm   1.0mph /  1.6km/h 58% 0.00in /  0mm 0.0 W/m2
21:58 52.5 °F /  11.4 °C 38.1 °F /  3.4 °C 30.31in /  1026.3hPa Calm     58% 0.00in /  0mm 0.0 W/m2
22:04 52.5 °F /  11.4 °C 38.1 °F /  3.4 °C 30.31in /  1026.3hPa Calm     58% 0.00in /  0mm 0.0 W/m2
22:10 52.3 °F /  11.3 °C 37.9 °F /  3.3 °C 30.31in /  1026.3hPa Calm     58% 0.00in /  0mm 0.0 W/m2
22:16 52.0 °F /  11.1 °C 38.1 °F /  3.4 °C 30.31in /  1026.3hPa Calm     59% 0.00in /  0mm 0.0 W/m2
22:23 51.6 °F /  10.9 °C 38.1 °F /  3.4 °C 30.31in /  1026.3hPa Calm   2.0mph /  3.2km/h 60% 0.00in /  0mm 0.0 W/m2
22:29 51.6 °F /  10.9 °C 37.8 °F /  3.2 °C 30.31in /  1026.3hPa Calm     59% 0.00in /  0mm 0.0 W/m2
22:35 51.4 °F /  10.8 °C 37.6 °F /  3.1 °C 30.31in /  1026.3hPa Calm     59% 0.00in /  0mm 0.0 W/m2
22:41 51.4 °F /  10.8 °C 37.9 °F /  3.3 °C 30.31in /  1026.3hPa ESE 0.9mph /  1.4km/h 2.0mph /  3.2km/h 60% 0.00in /  0mm 0.0 W/m2
22:47 51.4 °F /  10.8 °C 37.9 °F /  3.3 °C 30.31in /  1026.3hPa Calm     60% 0.00in /  0mm 0.0 W/m2
22:53 51.3 °F /  10.7 °C 37.8 °F /  3.2 °C 30.31in /  1026.3hPa Calm   1.0mph /  1.6km/h 60% 0.00in /  0mm 0.0 W/m2
22:59 51.3 °F /  10.7 °C 37.8 °F /  3.2 °C 30.31in /  1026.3hPa Calm   1.0mph /  1.6km/h 60% 0.00in /  0mm 0.0 W/m2
23:05 51.3 °F /  10.7 °C 37.8 °F /  3.2 °C 30.31in /  1026.3hPa Calm     60% 0.00in /  0mm 0.0 W/m2
23:11 51.3 °F /  10.7 °C 37.8 °F /  3.2 °C 30.31in /  1026.3hPa Calm   1.0mph /  1.6km/h 60% 0.00in /  0mm 0.0 W/m2
23:17 51.3 °F /  10.7 °C 37.8 °F /  3.2 °C 30.31in /  1026.3hPa Calm   1.0mph /  1.6km/h 60% 0.00in /  0mm 0.0 W/m2
23:23 51.3 °F /  10.7 °C 37.8 °F /  3.2 °C 30.31in /  1026.3hPa Calm     60% 0.00in /  0mm 0.0 W/m2
23:29 51.3 °F /  10.7 °C 37.8 °F /  3.2 °C 30.31in /  1026.3hPa ESE 0.9mph /  1.4km/h 2.0mph /  3.2km/h 60% 0.00in /  0mm 0.0 W/m2
23:35 51.1 °F /  10.6 °C 37.8 °F /  3.2 °C 30.31in /  1026.3hPa Calm   2.0mph /  3.2km/h 60% 0.00in /  0mm 0.0 W/m2
23:41 51.1 °F /  10.6 °C 37.8 °F /  3.2 °C 30.31in /  1026.3hPa Calm     60% 0.00in /  0mm 0.0 W/m2
23:47 50.7 °F /  10.4 °C 37.8 °F /  3.2 °C 30.31in /  1026.3hPa Calm   1.0mph /  1.6km/h 61% 0.00in /  0mm 0.0 W/m2
23:53 50.5 °F /  10.3 °C 37.6 °F /  3.1 °C 30.31in /  1026.3hPa Calm   3.0mph /  4.8km/h 61% 0.00in /  0mm 0.0 W/m2
23:59 50.5 °F /  10.3 °C 37.6 °F /  3.1 °C 30.31in /  1026.3hPa Calm     61% 0.00in /  0mm 0.0 W/m2
Olympia, Windhoek, Namibia
Compliments of Weather Underground - 3 mb